Time;durP1;ratioP1;P1;durP2;ratioP2;P2;SDS_P1;SDS_P2;PMS_P1;PMS_P2;Temp;Humidity;BMP_temperature;BMP_pressure;BME280_temperature;BME280_humidity;BME280_pressure;Samples;Min_cycle;Max_cycle;Signal;HPM_P1;HPM_P2
2023/02/08 00:03:50;;;;;;;6.95;3.55;;;17.30;67.90;;;;;;10525571;28;20068;-25
2023/02/08 00:08:53;;;;;;;7.13;3.92;;;17.30;67.90;;;;;;10531348;28;20123;-25
2023/02/08 00:13:55;;;;;;;6.25;3.40;;;17.20;67.80;;;;;;10526377;28;20544;-24
2023/02/08 00:18:57;;;;;;;4.73;3.00;;;16.90;69.30;;;;;;10530399;28;20050;-23
2023/02/08 00:24:00;;;;;;;6.87;3.73;;;17.10;68.10;;;;;;10532330;28;20474;-25
2023/02/08 00:29:02;;;;;;;7.75;3.80;;;17.10;68.20;;;;;;10531445;28;20036;-24
2023/02/08 00:34:04;;;;;;;5.67;3.77;;;17.10;68.00;;;;;;10528075;28;20135;-24
2023/02/08 00:39:07;;;;;;;5.25;2.97;;;17.10;67.80;;;;;;10528748;28;20146;-24
2023/02/08 00:44:09;;;;;;;4.75;3.13;;;17.10;68.10;;;;;;10529482;28;21388;-25
2023/02/08 00:49:11;;;;;;;5.07;3.20;;;17.00;67.70;;;;;;10527330;28;20768;-25
2023/02/08 00:54:16;;;;;;;6.83;3.60;;;17.00;67.80;;;;;;10530862;28;20399;-26
2023/02/08 00:59:17;;;;;;;8.35;4.07;;;17.00;68.00;;;;;;10531520;28;20508;-24
2023/02/08 01:04:19;;;;;;;6.07;3.60;;;17.00;67.60;;;;;;10531336;28;20089;-24
2023/02/08 01:09:23;;;;;;;6.40;3.73;;;17.00;67.60;;;;;;10531032;28;20040;-24
2023/02/08 01:14:25;;;;;;;8.23;3.80;;;16.90;67.40;;;;;;10529138;28;20583;-24
2023/02/08 01:19:27;;;;;;;8.10;3.47;;;16.90;67.60;;;;;;10529278;28;20438;-25
2023/02/08 01:24:30;;;;;;;7.65;4.07;;;16.90;67.70;;;;;;10530164;28;20072;-25
2023/02/08 01:29:32;;;;;;;8.27;3.28;;;16.90;67.50;;;;;;10529350;28;20054;-25
2023/02/08 01:34:34;;;;;;;5.63;3.50;;;16.80;67.50;;;;;;10525257;28;20051;-24
2023/02/08 01:39:37;;;;;;;8.20;3.53;;;16.90;67.60;;;;;;10523131;28;20490;-24
2023/02/08 01:45:28;;;;;;;6.18;3.53;;;16.80;67.50;;;;;;10528277;28;20463;-22
2023/02/08 01:50:36;;;;;;;5.85;3.55;;;16.80;67.50;;;;;;10527033;28;20130;-28
2023/02/08 01:55:44;;;;;;;3.83;2.80;;;16.70;67.50;;;;;;10542375;28;20153;-25
2023/02/08 02:00:47;;;;;;;5.97;2.72;;;16.70;67.50;;;;;;10529049;28;20173;-24
2023/02/08 02:05:54;;;;;;;4.57;3.55;;;16.70;67.50;;;;;;10516584;28;20044;-25
2023/02/08 02:10:57;;;;;;;6.13;3.50;;;16.70;67.60;;;;;;10514053;28;20067;-24
2023/02/08 02:15:59;;;;;;;4.75;3.40;;;16.70;67.40;;;;;;10522890;28;20098;-25
2023/02/08 02:21:27;;;;;;;3.97;2.50;;;16.70;67.30;;;;;;10523936;28;20032;-24
2023/02/08 02:26:58;;;;;;;4.80;2.40;;;16.60;67.10;;;;;;10524825;28;20051;-25
2023/02/08 02:32:18;;;;;;;5.60;2.95;;;16.60;67.10;;;;;;10515407;28;20052;-25
2023/02/08 02:37:36;;;;;;;3.10;2.33;;;16.70;67.00;;;;;;10524131;28;20061;-25
2023/02/08 02:48:20;;;;;;;6.43;2.92;;;16.60;67.30;;;;;;10525824;28;20048;-25
2023/02/08 02:53:29;;;;;;;3.42;2.72;;;16.60;67.40;;;;;;10525637;28;20142;-25
2023/02/08 02:58:32;;;;;;;4.45;2.63;;;16.50;67.30;;;;;;10537080;28;20066;-25
2023/02/08 03:03:36;;;;;;;4.18;3.05;;;16.50;67.10;;;;;;10537225;28;20093;-24
2023/02/08 03:09:17;;;;;;;2.50;2.00;;;16.50;67.20;;;;;;10535615;28;20039;-24
2023/02/08 03:14:34;;;;;;;4.22;2.50;;;16.50;67.10;;;;;;10536003;28;20076;-24
2023/02/08 03:19:46;;;;;;;3.15;2.42;;;16.50;67.00;;;;;;10535749;28;20036;-24
2023/02/08 03:24:54;;;;;;;4.53;2.80;;;16.40;66.90;;;;;;10530398;28;20040;-24
2023/02/08 03:30:01;;;;;;;4.20;2.40;;;16.40;67.10;;;;;;10535726;28;20150;-25
2023/02/08 03:35:09;;;;;;;4.25;2.60;;;16.40;66.90;;;;;;10532551;28;20079;-27
2023/02/08 03:40:16;;;;;;;7.60;2.78;;;16.40;67.10;;;;;;10529164;28;20135;-24
2023/02/08 03:45:22;;;;;;;3.35;2.50;;;16.40;67.20;;;;;;10533636;28;20079;-24
2023/02/08 03:50:27;;;;;;;3.67;2.30;;;16.40;67.00;;;;;;10531072;28;20068;-24
2023/02/08 03:55:33;;;;;;;3.17;2.50;;;16.30;66.80;;;;;;10533892;28;20075;-25
2023/02/08 04:00:41;;;;;;;4.68;2.33;;;16.30;66.90;;;;;;10527729;28;20052;-24
2023/02/08 04:05:45;;;;;;;4.88;2.83;;;16.30;67.00;;;;;;10518782;28;20463;-25
2023/02/08 04:10:47;;;;;;;4.10;2.65;;;16.30;67.00;;;;;;10523132;28;20047;-26
2023/02/08 04:15:49;;;;;;;3.50;2.25;;;16.30;66.60;;;;;;10531804;28;20051;-25
2023/02/08 04:20:53;;;;;;;3.37;2.50;;;16.30;66.70;;;;;;10531635;28;20130;-24
2023/02/08 04:25:54;;;;;;;3.22;2.30;;;16.30;66.70;;;;;;10532234;28;20071;-24
2023/02/08 04:30:56;;;;;;;5.50;2.67;;;16.20;66.70;;;;;;10527970;28;20111;-24
2023/02/08 04:36:00;;;;;;;3.07;2.43;;;16.20;66.70;;;;;;10529315;28;20874;-23
2023/02/08 04:41:01;;;;;;;4.25;1.85;;;16.10;66.60;;;;;;10524569;28;20432;-23
2023/02/08 04:46:04;;;;;;;3.27;2.10;;;16.20;66.70;;;;;;10523892;28;20066;-25
2023/02/08 04:51:07;;;;;;;3.63;2.22;;;16.20;66.60;;;;;;10530603;28;20505;-26
2023/02/08 04:56:09;;;;;;;2.53;2.03;;;16.10;66.60;;;;;;10530991;28;20131;-25
2023/02/08 05:01:11;;;;;;;3.93;2.20;;;16.10;66.30;;;;;;10530473;28;20460;-26
2023/02/08 05:06:14;;;;;;;3.47;2.25;;;16.10;66.50;;;;;;10531195;28;20044;-26
2023/02/08 05:11:20;;;;;;;3.00;2.05;;;16.00;66.50;;;;;;10525723;28;20052;-24
2023/02/08 05:16:22;;;;;;;2.58;2.00;;;16.20;66.00;;;;;;10530531;28;20051;-26
2023/02/08 05:21:25;;;;;;;3.37;2.23;;;16.40;65.30;;;;;;10529209;28;20387;-23
2023/02/08 05:26:27;;;;;;;3.78;2.00;;;16.60;64.80;;;;;;10531208;28;20047;-23
2023/02/08 05:31:29;;;;;;;2.63;2.22;;;16.70;64.50;;;;;;10530868;28;20093;-25
2023/02/08 05:36:32;;;;;;;3.53;2.03;;;16.70;64.30;;;;;;10529017;28;20715;-25
2023/02/08 05:41:34;;;;;;;2.75;2.15;;;16.80;64.20;;;;;;10530198;28;20051;-25
2023/02/08 05:46:36;;;;;;;3.00;1.93;;;16.80;64.20;;;;;;10534241;28;20048;-28
2023/02/08 05:51:39;;;;;;;4.37;2.30;;;16.90;64.00;;;;;;10526732;28;20083;-26
2023/02/08 05:56:41;;;;;;;2.65;2.00;;;16.90;63.90;;;;;;10529901;28;20044;-25
2023/02/08 06:01:43;;;;;;;2.70;1.60;;;16.90;63.80;;;;;;10528556;28;20036;-25
2023/02/08 06:06:46;;;;;;;2.80;1.97;;;16.90;63.70;;;;;;10528277;28;20200;-25
2023/02/08 06:11:48;;;;;;;3.58;2.33;;;16.90;63.70;;;;;;10524002;28;20040;-24
2023/02/08 06:16:50;;;;;;;4.00;2.20;;;17.00;63.60;;;;;;10528226;28;21097;-25
2023/02/08 06:21:53;;;;;;;3.47;2.30;;;16.90;63.90;;;;;;10531545;28;20067;-25
2023/02/08 06:26:56;;;;;;;2.85;2.10;;;16.90;63.70;;;;;;10527462;28;20126;-25
2023/02/08 06:31:58;;;;;;;7.22;2.15;;;16.90;63.60;;;;;;10530807;28;20075;-25
2023/02/08 06:37:02;;;;;;;5.47;2.03;;;17.00;63.60;;;;;;10524886;28;20543;-26
2023/02/08 06:42:03;;;;;;;5.47;1.98;;;16.90;63.80;;;;;;10526427;28;20094;-25
2023/02/08 06:47:05;;;;;;;5.73;2.77;;;16.90;63.70;;;;;;10520840;28;20078;-27
2023/02/08 06:52:09;;;;;;;4.47;2.10;;;16.60;64.20;;;;;;10525777;28;20036;-24
2023/02/08 06:57:11;;;;;;;5.60;2.05;;;16.80;64.30;;;;;;10522936;28;20083;-24
2023/02/08 07:15:23;;;;;;;3.20;2.50;;;16.80;63.70;;;;;;10610524;27;20116;-25
2023/02/08 07:20:25;;;;;;;3.80;2.30;;;16.70;64.30;;;;;;10604425;27;20487;-24
2023/02/08 07:25:27;;;;;;;3.90;2.28;;;16.80;64.10;;;;;;10597254;27;20039;-24
2023/02/08 07:30:30;;;;;;;5.67;2.40;;;16.70;64.10;;;;;;10597831;27;20585;-25
2023/02/08 07:35:32;;;;;;;5.45;3.08;;;16.80;64.10;;;;;;10601926;27;20364;-26
2023/02/08 07:40:34;;;;;;;7.43;3.07;;;16.70;64.20;;;;;;10602957;27;20145;-26
2023/02/08 07:45:38;;;;;;;5.50;2.83;;;16.60;64.30;;;;;;10595193;27;20101;-28
2023/02/08 07:50:40;;;;;;;5.00;3.17;;;16.60;64.30;;;;;;10586262;27;20128;-26
2023/02/08 07:55:44;;;;;;;5.60;3.23;;;16.60;64.30;;;;;;10597918;27;20048;-24
2023/02/08 08:00:47;;;;;;;4.75;2.67;;;16.40;64.50;;;;;;10587481;27;20488;-25
2023/02/08 08:05:50;;;;;;;6.47;2.65;;;16.40;64.60;;;;;;10603233;27;20086;-24
2023/02/08 08:10:51;;;;;;;5.75;2.90;;;16.40;64.70;;;;;;10602454;27;20052;-26
2023/02/08 08:15:55;;;;;;;7.47;3.07;;;16.30;64.90;;;;;;10597963;27;20078;-25
2023/02/08 08:20:56;;;;;;;4.80;2.53;;;16.30;65.10;;;;;;10585235;27;20048;-26
2023/02/08 08:25:58;;;;;;;4.50;2.87;;;16.30;65.40;;;;;;10555586;27;20476;-24
2023/02/08 08:31:01;;;;;;;4.87;2.93;;;16.30;65.80;;;;;;10548873;28;20154;-27
2023/02/08 08:36:03;;;;;;;5.63;2.35;;;16.20;66.10;;;;;;10560773;27;20073;-25
2023/02/08 08:41:08;;;;;;;3.70;2.10;;;16.20;66.20;;;;;;10570213;27;20040;-25
2023/02/08 08:46:11;;;;;;;2.72;1.88;;;16.20;66.30;;;;;;10556285;28;20071;-25
2023/02/08 08:51:13;;;;;;;5.57;2.50;;;16.20;66.40;;;;;;10555027;27;20827;-25
2023/02/08 08:56:16;;;;;;;3.67;2.33;;;16.20;66.90;;;;;;10574632;27;20050;-25
2023/02/08 09:01:19;;;;;;;;;;;16.10;67.40;;;;;;10572516;28;20396;-25
2023/02/08 09:06:23;;;;;;;;;;;16.10;67.70;;;;;;10571666;28;19924;-27
2023/02/08 09:11:24;;;;;;;4.25;2.20;;;16.10;67.90;;;;;;10557515;27;20384;-25
2023/02/08 09:16:28;;;;;;;3.70;2.60;;;16.10;68.30;;;;;;10574549;27;20158;-26
2023/02/08 09:21:30;;;;;;;4.03;2.33;;;16.10;68.70;;;;;;10575820;27;20040;-25
2023/02/08 09:26:32;;;;;;;3.15;2.20;;;16.10;68.90;;;;;;10582222;27;20048;-24
2023/02/08 09:31:38;;;;;;;5.22;2.10;;;16.10;68.90;;;;;;10568704;27;20068;-25
2023/02/08 09:36:41;;;;;;;7.68;2.70;;;16.10;69.10;;;;;;10569022;27;20112;-25
2023/02/08 09:41:59;;;;;;;4.25;2.22;;;16.10;69.10;;;;;;10563460;27;20055;-24
2023/02/08 09:47:10;;;;;;;3.63;2.13;;;16.20;69.10;;;;;;10567533;28;20082;-25
2023/02/08 09:52:16;;;;;;;4.30;2.63;;;16.10;69.30;;;;;;10556739;28;20044;-24
2023/02/08 09:57:23;;;;;;;4.40;1.65;;;16.10;69.20;;;;;;10550203;28;20554;-25
2023/02/08 10:02:28;;;;;;;4.43;2.60;;;16.20;69.10;;;;;;10566710;28;20042;-25
2023/02/08 10:07:32;;;;;;;5.75;2.80;;;16.20;69.20;;;;;;10570364;27;20039;-23
2023/02/08 10:12:42;;;;;;;6.32;2.80;;;16.20;68.90;;;;;;10563520;28;20150;-25
2023/02/08 10:18:01;;;;;;;5.68;3.03;;;16.30;68.70;;;;;;10549660;27;20122;-24
2023/02/08 10:23:17;;;;;;;5.80;2.60;;;16.30;68.30;;;;;;10558056;27;20130;-24
2023/02/08 10:28:43;;;;;;;8.30;2.80;;;16.40;67.90;;;;;;10557544;27;20140;-26
2023/02/08 10:33:53;;;;;;;4.05;3.17;;;16.40;67.90;;;;;;10578740;27;20082;-27
2023/02/08 10:38:56;;;;;;;6.18;2.75;;;16.30;67.90;;;;;;10562556;27;20051;-24
2023/02/08 10:44:01;;;;;;;;;;;16.40;67.80;;;;;;10560587;27;20052;-25
2023/02/08 10:49:11;;;;;;;7.05;3.20;;;16.40;67.70;;;;;;10566060;28;19926;-25
2023/02/08 10:54:13;;;;;;;4.35;3.15;;;16.30;67.70;;;;;;10551984;28;20101;-25
2023/02/08 10:59:18;;;;;;;;;;;16.30;67.80;;;;;;10555865;28;20504;-24
2023/02/08 11:04:22;;;;;;;7.28;3.35;;;16.30;67.80;;;;;;10582694;27;20637;-24
2023/02/08 11:09:27;;;;;;;4.05;2.95;;;16.20;68.30;;;;;;10574840;27;20467;-25
2023/02/08 11:14:33;;;;;;;6.18;3.13;;;16.20;68.10;;;;;;10558625;28;20055;-25
2023/02/08 11:19:41;;;;;;;5.00;3.20;;;16.30;67.70;;;;;;10566470;28;20093;-24
2023/02/08 11:24:49;;;;;;;4.93;2.92;;;16.30;68.50;;;;;;10559937;27;20442;-25
2023/02/08 11:30:17;;;;;;;4.57;3.53;;;16.40;67.30;;;;;;10553518;28;20070;-25
2023/02/08 11:35:24;;;;;;;5.03;3.15;;;16.10;67.80;;;;;;10540818;28;20078;-24
2023/02/08 11:40:37;;;;;;;4.93;2.75;;;16.30;67.30;;;;;;10556071;28;20768;-25
2023/02/08 11:45:38;;;;;;;5.85;2.70;;;16.40;67.30;;;;;;10557504;28;20052;-25
2023/02/08 11:50:42;;;;;;;4.53;3.00;;;16.90;66.10;;;;;;10557343;28;20056;-24
2023/02/08 11:55:44;;;;;;;6.60;2.50;;;16.60;66.40;;;;;;10557402;28;20537;-26
2023/02/08 12:00:59;;;;;;;3.40;2.65;;;16.40;66.30;;;;;;10566065;27;20063;-25
2023/02/08 12:06:21;;;;;;;5.80;3.17;;;16.50;66.00;;;;;;10563027;27;20135;-26
2023/02/08 12:11:28;;;;;;;7.57;3.33;;;16.50;65.90;;;;;;10568034;27;20145;-26
2023/02/08 12:16:48;;;;;;;4.88;2.88;;;16.40;66.10;;;;;;10581417;27;20191;-23
2023/02/08 12:22:00;;;;;;;3.78;2.80;;;16.50;66.20;;;;;;10555088;27;20131;-24
2023/02/08 12:27:13;;;;;;;4.82;2.92;;;16.30;66.70;;;;;;10564920;27;20055;-26
2023/02/08 12:32:34;;;;;;;4.00;2.35;;;16.40;66.80;;;;;;10568197;28;20627;-25
2023/02/08 12:43:13;;;;;;;4.60;2.70;;;16.50;66.90;;;;;;10571852;27;20051;-25
2023/02/08 12:48:44;;;;;;;6.85;3.05;;;16.40;67.20;;;;;;10562051;27;20513;-24
2023/02/08 12:53:52;;;;;;;5.38;2.90;;;16.40;66.50;;;;;;10562750;27;20140;-25
2023/02/08 12:58:57;;;;;;;6.80;4.60;;;16.50;66.20;;;;;;10564201;27;20139;-25
2023/02/08 13:04:05;;;;;;;5.55;4.05;;;16.30;59.30;;;;;;10563544;28;20805;-24
2023/02/08 13:09:17;;;;;;;12.02;3.53;;;16.30;67.30;;;;;;10575539;27;20122;-25
2023/02/08 13:14:28;;;;;;;8.68;5.50;;;16.50;67.30;;;;;;10569090;27;20402;-28
2023/02/08 13:19:33;;;;;;;7.10;3.28;;;16.20;67.70;;;;;;10546782;28;20075;-30
2023/02/08 13:24:39;;;;;;;10.65;5.43;;;16.60;66.70;;;;;;10565746;27;20071;-25
2023/02/08 13:29:45;;;;;;;7.97;2.90;;;16.50;66.70;;;;;;10551964;28;20163;-26
2023/02/08 13:34:53;;;;;;;9.00;2.75;;;16.60;66.50;;;;;;10562765;28;20052;-24
2023/02/08 13:40:03;;;;;;;6.30;3.05;;;16.60;66.80;;;;;;10569322;27;20130;-26
2023/02/08 13:45:07;;;;;;;4.78;2.83;;;16.70;66.20;;;;;;10562425;27;20044;-26
2023/02/08 13:50:42;;;;;;;7.45;3.67;;;16.80;65.90;;;;;;10551519;28;20039;-24
2023/02/08 13:56:03;;;;;;;8.98;5.38;;;16.70;66.80;;;;;;10565952;27;20136;-24
2023/02/08 14:01:20;;;;;;;6.28;3.72;;;16.70;66.10;;;;;;10562440;27;20127;-25
2023/02/08 14:06:25;;;;;;;4.78;2.63;;;17.10;64.60;;;;;;10563120;28;20138;-24
2023/02/08 14:11:42;;;;;;;7.47;2.95;;;17.40;63.60;;;;;;10558611;27;20063;-25
2023/02/08 14:16:44;;;;;;;9.48;2.70;;;17.50;62.90;;;;;;10561537;28;20147;-24
2023/02/08 14:21:48;;;;;;;;;;;17.80;62.50;;;;;;10553747;27;20059;-27
2023/02/08 14:26:51;;;;;;;4.57;2.35;;;17.90;62.20;;;;;;10564671;28;20022;-25
2023/02/08 14:31:54;;;;;;;3.50;2.25;;;18.00;62.10;;;;;;10561155;27;20135;-25
2023/02/08 14:37:00;;;;;;;;;;;18.10;61.70;;;;;;10573851;27;20400;-25
2023/02/08 14:42:07;;;;;;;14.25;6.10;;;18.20;61.80;;;;;;10554644;28;19928;-24
2023/02/08 14:47:12;;;;;;;5.22;2.90;;;18.30;61.60;;;;;;10561705;27;20166;-25
2023/02/08 14:52:21;;;;;;;3.92;2.45;;;18.30;61.40;;;;;;10552903;28;20158;-28
2023/02/08 14:57:30;;;;;;;5.05;2.72;;;18.50;61.20;;;;;;10561179;28;20071;-25
2023/02/08 15:02:34;;;;;;;4.57;2.10;;;18.60;61.00;;;;;;10565689;27;20126;-24
2023/02/08 15:07:40;;;;;;;5.35;2.67;;;18.80;60.20;;;;;;10564364;28;20567;-24
2023/02/08 15:12:46;;;;;;;6.22;2.80;;;18.70;60.40;;;;;;10553395;28;20101;-25
2023/02/08 15:17:50;;;;;;;3.90;2.50;;;18.80;60.30;;;;;;10562056;28;20134;-25
2023/02/08 15:22:59;;;;;;;4.40;2.75;;;18.80;60.30;;;;;;10554379;28;20142;-24
2023/02/08 15:28:14;;;;;;;6.55;2.10;;;19.00;59.80;;;;;;10561427;28;20061;-26
2023/02/08 15:33:17;;;;;;;6.75;2.17;;;19.00;59.80;;;;;;10540917;28;20488;-29
2023/02/08 15:38:21;;;;;;;2.30;1.75;;;19.10;59.60;;;;;;10570818;27;20109;-26
2023/02/08 15:43:24;;;;;;;3.67;2.00;;;19.10;59.40;;;;;;10576663;27;20676;-27
2023/02/08 15:48:27;;;;;;;7.20;2.20;;;19.20;59.60;;;;;;10568558;27;20122;-25
2023/02/08 15:53:31;;;;;;;2.90;2.20;;;19.30;59.30;;;;;;10571886;27;20075;-26
2023/02/08 15:58:39;;;;;;;3.22;1.90;;;19.30;59.00;;;;;;10558479;28;20108;-25
2023/02/08 16:03:41;;;;;;;5.13;2.05;;;19.40;58.90;;;;;;10563567;27;20055;-27
2023/02/08 16:08:43;;;;;;;2.38;1.90;;;19.40;58.80;;;;;;10575923;27;20043;-28
2023/02/08 16:13:50;;;;;;;5.45;1.75;;;19.40;58.70;;;;;;10572307;27;20135;-26
2023/02/08 16:18:58;;;;;;;5.43;2.03;;;19.50;58.50;;;;;;10584702;27;20051;-26
2023/02/08 16:24:05;;;;;;;5.07;2.22;;;19.60;58.10;;;;;;10565557;27;20778;-26
2023/02/08 16:29:18;;;;;;;2.53;1.83;;;19.60;57.80;;;;;;10563482;27;20118;-26
2023/02/08 16:34:22;;;;;;;2.70;1.73;;;19.60;57.80;;;;;;10556407;28;20102;-25
2023/02/08 16:39:38;;;;;;;2.97;2.03;;;19.70;57.60;;;;;;10570683;27;20104;-26
2023/02/08 16:45:02;;;;;;;4.38;2.00;;;19.70;57.20;;;;;;10560461;28;20130;-24
2023/02/08 16:50:05;;;;;;;4.20;2.63;;;19.70;56.50;;;;;;10547677;28;20048;-25
2023/02/08 16:55:08;;;;;;;3.00;2.38;;;19.70;55.60;;;;;;10557169;27;20439;-31
2023/02/08 17:00:20;;;;;;;5.78;2.63;;;19.60;55.40;;;;;;10555693;27;20040;-27
2023/02/08 17:05:26;;;;;;;6.95;3.72;;;19.50;53.70;;;;;;10547375;27;20492;-25
2023/02/08 17:10:30;;;;;;;7.13;4.10;;;19.50;52.70;;;;;;10565678;27;20083;-26
2023/02/08 17:15:33;;;;;;;9.20;6.57;;;19.40;52.50;;;;;;10562280;28;20492;-24
2023/02/08 17:20:35;;;;;;;14.90;8.60;;;19.30;52.40;;;;;;10561982;28;20040;-24
2023/02/08 17:25:38;;;;;;;19.63;10.00;;;19.30;52.40;;;;;;10566403;27;20046;-25
2023/02/08 17:30:43;;;;;;;16.00;10.20;;;19.30;52.30;;;;;;10560399;27;20171;-28
2023/02/08 17:35:49;;;;;;;18.83;11.18;;;19.20;52.40;;;;;;10560137;28;20056;-26
2023/02/08 17:40:50;;;;;;;22.67;13.23;;;19.30;52.00;;;;;;10557802;27;20101;-29
2023/02/08 17:45:54;;;;;;;23.90;14.77;;;19.30;53.20;;;;;;10565319;28;20044;-26
2023/02/08 17:50:56;;;;;;;27.88;15.90;;;19.20;54.10;;;;;;10566462;28;20063;-26
2023/02/08 17:55:58;;;;;;;;;;;19.20;54.70;;;;;;10564086;28;20427;-26
2023/02/08 18:01:01;;;;;;;24.27;15.32;;;19.20;55.20;;;;;;10565815;27;20503;-26
2023/02/08 18:06:04;;;;;;;27.50;16.10;;;19.10;55.50;;;;;;10558418;27;20417;-25
2023/02/08 18:11:08;;;;;;;28.80;16.88;;;19.00;55.90;;;;;;10572901;27;20043;-26
2023/02/08 18:16:13;;;;;;;27.85;15.35;;;19.00;56.10;;;;;;10564201;27;20112;-25
2023/02/08 18:21:17;;;;;;;27.58;15.55;;;19.10;56.10;;;;;;10557072;27;20563;-25
2023/02/08 18:26:21;;;;;;;28.02;14.73;;;19.00;56.20;;;;;;10564467;27;20460;-26
2023/02/08 18:31:24;;;;;;;22.38;13.00;;;19.00;56.20;;;;;;10544591;28;20141;-25
2023/02/08 18:36:26;;;;;;;24.00;13.63;;;19.10;56.10;;;;;;10562808;27;20389;-25
2023/02/08 18:41:29;;;;;;;24.83;14.45;;;19.00;56.00;;;;;;10555207;27;20035;-25
2023/02/08 18:46:32;;;;;;;23.70;13.50;;;19.10;56.00;;;;;;10562600;27;20049;-25
2023/02/08 18:51:35;;;;;;;26.30;13.52;;;19.10;56.00;;;;;;10564384;28;20492;-27
2023/02/08 18:56:37;;;;;;;;;;;19.20;56.10;;;;;;10568990;27;20054;-25
2023/02/08 19:01:40;;;;;;;17.60;10.63;;;19.20;55.80;;;;;;10572294;27;20290;-25
2023/02/08 19:06:42;;;;;;;19.23;9.68;;;19.30;55.60;;;;;;10563156;28;20079;-25
2023/02/08 19:11:44;;;;;;;13.93;8.32;;;19.30;55.60;;;;;;10573729;27;20085;-25
2023/02/08 19:16:48;;;;;;;12.75;8.45;;;19.30;55.50;;;;;;10553743;28;20098;-24
2023/02/08 19:21:50;;;;;;;14.82;9.10;;;19.30;55.50;;;;;;10559146;28;20865;-26
2023/02/08 19:26:52;;;;;;;14.50;8.75;;;19.30;55.50;;;;;;10567759;28;20138;-26
2023/02/08 19:31:55;;;;;;;13.48;7.85;;;19.30;55.30;;;;;;10563512;28;20044;-26
2023/02/08 19:36:57;;;;;;;12.50;7.78;;;19.30;55.30;;;;;;10561982;28;20047;-24
2023/02/08 19:41:59;;;;;;;16.73;8.35;;;19.30;55.50;;;;;;10557873;28;20075;-26
2023/02/08 19:47:02;;;;;;;10.35;6.68;;;19.30;55.40;;;;;;10567750;28;20636;-24
2023/02/08 19:52:04;;;;;;;15.82;6.32;;;19.30;55.70;;;;;;10561548;28;20044;-24
2023/02/08 19:57:10;;;;;;;11.05;7.03;;;19.30;55.80;;;;;;10561335;28;20719;-28
2023/02/08 20:02:16;;;;;;;11.27;6.50;;;19.30;56.10;;;;;;10564484;28;20102;-25
2023/02/08 20:07:18;;;;;;;12.85;6.47;;;19.30;56.00;;;;;;10565423;27;20039;-25
2023/02/08 20:12:21;;;;;;;15.65;6.78;;;19.30;55.90;;;;;;10572699;28;20518;-25
2023/02/08 20:17:24;;;;;;;9.15;5.68;;;19.30;55.70;;;;;;10565836;27;20047;-26
2023/02/08 20:22:26;;;;;;;11.18;6.07;;;19.30;55.80;;;;;;10554595;28;20134;-25
2023/02/08 20:27:31;;;;;;;10.73;5.53;;;19.20;55.60;;;;;;10576226;27;20066;-24
2023/02/08 20:32:34;;;;;;;12.18;5.57;;;19.20;55.60;;;;;;10566537;27;20047;-24
2023/02/08 20:37:36;;;;;;;8.20;5.57;;;19.30;55.80;;;;;;10557064;27;20079;-26
2023/02/08 20:42:38;;;;;;;9.20;5.38;;;19.30;55.80;;;;;;10568982;27;20528;-26
2023/02/08 20:47:42;;;;;;;17.52;5.55;;;19.20;55.70;;;;;;10553793;27;20040;-25
2023/02/08 20:52:45;;;;;;;7.95;4.88;;;19.20;55.60;;;;;;10561422;27;20176;-26
2023/02/08 20:57:47;;;;;;;8.77;4.63;;;19.10;55.60;;;;;;10552264;28;20143;-25
2023/02/08 21:02:50;;;;;;;10.68;4.82;;;19.20;55.50;;;;;;10548310;28;20128;-25
2023/02/08 21:07:52;;;;;;;12.02;5.18;;;19.10;55.40;;;;;;10546096;27;20532;-23
2023/02/08 21:12:54;;;;;;;7.95;5.05;;;19.10;55.30;;;;;;10556308;28;20075;-26
2023/02/08 21:17:57;;;;;;;7.22;4.45;;;19.10;55.10;;;;;;10572388;27;20048;-25
2023/02/08 21:22:59;;;;;;;8.02;4.07;;;19.10;55.00;;;;;;10552298;28;20044;-25
2023/02/08 21:28:01;;;;;;;10.80;4.10;;;19.10;55.00;;;;;;10557808;27;20056;-25
2023/02/08 21:33:05;;;;;;;5.43;3.88;;;19.10;54.90;;;;;;10559296;28;20055;-25
2023/02/08 21:38:06;;;;;;;7.47;4.25;;;19.10;54.70;;;;;;10568674;27;20483;-25
2023/02/08 21:43:08;;;;;;;7.07;3.85;;;19.00;54.90;;;;;;10571061;28;20496;-25
2023/02/08 21:48:12;;;;;;;4.13;3.33;;;19.00;55.10;;;;;;10563813;28;20495;-26
2023/02/08 21:58:35;;;;;;;6.53;3.65;;;18.90;55.20;;;;;;10558176;28;20048;-24
2023/02/08 22:03:38;;;;;;;6.47;3.47;;;18.80;55.40;;;;;;10564815;27;20083;-25
2023/02/08 22:08:40;;;;;;;8.70;3.50;;;18.70;55.60;;;;;;10567471;28;20060;-25
2023/02/08 22:13:43;;;;;;;6.50;3.03;;;18.60;55.60;;;;;;10557503;27;20121;-26
2023/02/08 22:18:46;;;;;;;5.13;3.00;;;18.50;55.60;;;;;;10563829;28;20050;-24
2023/02/08 22:23:48;;;;;;;5.43;3.42;;;18.50;55.70;;;;;;10557348;27;20757;-28
2023/02/08 22:28:50;;;;;;;6.43;3.30;;;18.40;55.80;;;;;;10557476;28;20132;-29
2023/02/08 22:33:54;;;;;;;5.10;3.40;;;18.40;55.80;;;;;;10561309;28;20395;-25
2023/02/08 22:38:56;;;;;;;5.75;3.03;;;18.30;55.80;;;;;;10556048;28;20108;-26
2023/02/08 22:43:58;;;;;;;6.88;3.40;;;18.20;55.90;;;;;;10543236;28;20076;-27
2023/02/08 22:49:01;;;;;;;4.28;2.25;;;18.20;56.10;;;;;;10553632;28;20051;-25
2023/02/08 22:54:03;;;;;;;5.30;3.00;;;18.10;56.00;;;;;;10565358;28;20081;-24
2023/02/08 22:59:05;;;;;;;5.88;2.80;;;18.10;56.00;;;;;;10571210;28;20127;-25
2023/02/08 23:04:08;;;;;;;6.32;2.85;;;18.00;56.10;;;;;;10571015;28;20093;-25
2023/02/08 23:09:12;;;;;;;3.08;2.22;;;18.00;56.00;;;;;;10555795;28;20044;-25
2023/02/08 23:14:14;;;;;;;5.85;2.70;;;18.00;56.00;;;;;;10561341;28;20049;-24
2023/02/08 23:19:18;;;;;;;;;;;18.00;55.70;;;;;;10570970;28;20043;-25
2023/02/08 23:24:19;;;;;;;5.93;3.17;;;17.90;55.90;;;;;;10558171;28;20335;-25
2023/02/08 23:29:21;;;;;;;5.20;2.75;;;17.90;55.90;;;;;;10569047;28;20100;-25
2023/02/08 23:34:25;;;;;;;5.97;3.30;;;17.80;55.80;;;;;;10566172;28;20169;-25
2023/02/08 23:39:26;;;;;;;4.13;2.65;;;17.80;55.70;;;;;;10568808;28;20109;-25
2023/02/08 23:44:28;;;;;;;5.70;3.10;;;17.80;56.10;;;;;;10558792;28;20054;-30
2023/02/08 23:49:32;;;;;;;4.15;2.60;;;17.70;55.90;;;;;;10564858;28;20079;-24
2023/02/08 23:54:34;;;;;;;4.63;2.70;;;17.70;55.80;;;;;;10563338;28;20101;-24
2023/02/08 23:59:36;;;;;;;2.67;2.30;;;17.70;56.00;;;;;;10566384;27;20144;-24
